createdAt,value
2018-06-08T10:54:04.973Z,58.18
2018-06-08T10:55:04.961Z,57.72
2018-06-08T10:56:04.959Z,56.87
2018-06-08T10:57:04.955Z,56.68
2018-06-08T10:58:04.945Z,56.12
2018-06-08T10:59:04.950Z,54.76
2018-06-08T11:00:04.940Z,53.81
2018-06-08T11:01:04.945Z,55.18
2018-06-08T11:02:04.949Z,53.42
2018-06-08T11:03:04.936Z,52.67
2018-06-08T11:04:04.935Z,52.50
2018-06-08T11:05:04.936Z,52.70
2018-06-08T11:06:04.939Z,53.19
2018-06-08T11:07:04.944Z,53.67
2018-06-08T11:08:04.938Z,52.80
2018-06-08T11:09:04.940Z,52.73
2018-06-08T11:10:04.941Z,52.92
2018-06-08T11:11:04.954Z,53.02
2018-06-08T11:12:04.945Z,53.31
2018-06-08T11:13:04.952Z,52.83
2018-06-08T11:14:04.948Z,53.28
2018-06-08T11:15:04.952Z,53.87
2018-06-08T11:16:04.960Z,54.23
2018-06-08T11:17:04.963Z,54.43
2018-06-08T11:18:04.963Z,55.21
2018-06-08T11:19:04.964Z,55.40
2018-06-08T11:20:04.968Z,55.27
2018-06-08T11:21:04.980Z,55.11
2018-06-08T11:22:04.976Z,54.03
2018-06-08T11:23:04.988Z,55.01
2018-06-08T11:24:04.982Z,54.43
2018-06-08T11:25:04.981Z,54.33
2018-06-08T11:26:04.997Z,53.67
2018-06-08T11:27:04.997Z,52.99
2018-06-08T11:28:04.995Z,53.77
2018-06-08T11:29:04.994Z,53.60
2018-06-08T11:30:05.000Z,53.70
2018-06-08T11:31:05.009Z,52.85
2018-06-08T11:32:05.006Z,52.17
2018-06-08T11:33:05.009Z,52.95
2018-06-08T11:34:05.017Z,52.00
2018-06-08T11:35:05.015Z,51.61
2018-06-08T11:36:05.024Z,51.31
2018-06-08T11:37:05.024Z,51.41
2018-06-08T11:38:05.027Z,49.76
2018-06-08T11:39:05.031Z,49.56
2018-06-08T11:40:05.037Z,50.26
2018-06-08T11:41:05.041Z,50.02
2018-06-08T11:42:05.045Z,49.83
2018-06-08T11:43:05.064Z,49.00
2018-06-08T11:44:05.066Z,50.53
2018-06-08T11:45:05.058Z,50.82
2018-06-08T11:46:05.067Z,51.02
2018-06-08T11:47:05.070Z,51.02
2018-06-08T11:48:05.075Z,50.56
2018-06-08T11:49:05.077Z,49.80
2018-06-08T11:50:05.084Z,50.48
2018-06-08T11:51:05.083Z,51.46
2018-06-08T11:52:05.090Z,51.09
2018-06-08T11:53:05.099Z,48.95
2018-06-08T11:54:05.108Z,47.80
2018-06-08T12:11:57.638Z,48.63
2018-06-08T12:12:57.624Z,48.93
2018-06-08T12:13:57.628Z,48.73
2018-06-08T12:14:57.627Z,48.83
2018-06-08T12:15:57.625Z,48.14
2018-06-08T12:16:57.625Z,47.78
2018-06-08T12:17:57.626Z,48.75
2018-06-08T12:18:57.631Z,47.88
2018-06-08T12:19:57.634Z,47.78
2018-06-08T12:20:57.628Z,47.39
2018-06-08T12:21:57.632Z,47.78
2018-06-08T12:22:57.636Z,47.00
2018-06-08T12:23:57.640Z,46.41
2018-06-08T12:24:57.646Z,46.88
2018-06-08T12:25:57.641Z,47.17
2018-06-08T12:26:57.641Z,47.56
2018-06-08T12:27:57.645Z,48.14
2018-06-08T12:28:57.654Z,48.05
2018-06-08T12:29:57.652Z,47.56
2018-06-08T12:30:57.662Z,47.75
2018-06-08T12:31:57.762Z,47.66
2018-06-08T12:32:57.664Z,48.05
2018-06-08T12:33:57.671Z,48.24
2018-06-08T12:34:57.677Z,48.05
2018-06-08T12:35:57.672Z,47.85
2018-06-08T12:36:57.681Z,48.17
2018-06-08T12:37:57.683Z,47.78
2018-06-08T12:38:57.697Z,47.88
2018-06-08T12:39:57.693Z,49.44
2018-06-08T12:40:57.708Z,49.54
2018-06-08T12:41:57.702Z,48.95
2018-06-08T12:42:57.701Z,48.75
2018-06-08T12:43:57.730Z,48.95
2018-06-08T12:44:57.718Z,49.54
2018-06-08T12:45:57.712Z,48.19
2018-06-08T12:46:57.720Z,46.83
2018-06-08T12:47:57.726Z,47.71
2018-06-08T12:48:57.774Z,48.68
2018-06-08T12:49:57.727Z,47.31
2018-06-08T12:50:57.739Z,46.53
2018-06-08T12:51:57.746Z,46.75
2018-06-08T12:52:57.742Z,46.36
2018-06-08T12:53:57.756Z,46.24
2018-06-08T12:54:57.754Z,46.24
2018-06-08T12:55:57.758Z,46.61
2018-06-08T12:56:57.762Z,46.61
2018-06-08T12:57:57.770Z,47.88
2018-06-08T12:58:57.777Z,46.90
2018-06-08T12:59:57.775Z,46.80
2018-06-08T13:00:57.794Z,46.51
2018-06-08T13:01:57.800Z,48.24
2018-06-08T13:02:57.786Z,49.44
2018-06-08T13:03:57.799Z,47.00
2018-06-08T13:04:57.804Z,47.02
2018-06-08T13:05:57.809Z,47.22
2018-06-08T13:06:57.808Z,46.14
2018-06-08T13:07:57.817Z,47.73
2018-06-08T13:08:57.821Z,48.61
2018-06-08T13:09:57.822Z,49.95
2018-06-08T13:10:57.839Z,49.95
2018-06-08T13:11:57.837Z,49.39
2018-06-08T13:12:57.838Z,49.76
2018-06-08T13:13:57.841Z,50.82
2018-06-08T13:14:57.846Z,51.31
2018-06-08T13:15:57.853Z,51.12
2018-06-08T13:16:57.888Z,51.21
2018-06-08T13:17:57.875Z,51.39
2018-06-08T13:18:57.881Z,51.02
2018-06-08T13:19:57.878Z,50.41
2018-06-08T13:20:57.879Z,50.90
2018-06-08T13:21:57.888Z,51.95
2018-06-08T13:22:57.883Z,51.36
2018-06-08T13:23:57.897Z,51.26
2018-06-08T13:24:57.919Z,51.26
2018-06-08T13:25:57.904Z,50.21
2018-06-08T13:26:57.909Z,50.80
2018-06-08T13:27:57.918Z,50.63
2018-06-08T13:28:57.930Z,50.34
2018-06-08T13:29:57.920Z,50.53
2018-06-08T13:30:57.925Z,50.43
2018-06-08T13:31:57.936Z,50.82
2018-06-08T13:32:57.977Z,50.97
2018-06-08T13:33:57.938Z,52.44
2018-06-08T13:34:57.942Z,50.68
2018-06-08T13:35:57.955Z,56.11
2018-06-08T13:36:57.959Z,58.12
2018-06-08T13:37:57.964Z,58.34
2018-06-08T13:38:57.964Z,58.15
2018-06-08T13:39:57.972Z,57.98
2018-06-08T13:40:57.969Z,56.72
2018-06-08T13:41:57.974Z,57.21
2018-06-08T13:42:57.978Z,57.21
2018-06-08T13:43:57.988Z,57.08
2018-06-08T13:44:57.990Z,57.15
2018-06-08T13:45:57.992Z,57.12
2018-06-08T13:46:57.986Z,58.39
2018-06-08T13:47:57.988Z,56.74
2018-06-08T13:48:57.996Z,57.22
2018-06-08T13:49:58.001Z,57.06
2018-06-08T13:50:58.014Z,57.08
2018-06-08T13:51:58.013Z,56.60
2018-06-08T13:52:58.051Z,56.21
2018-06-08T13:53:58.008Z,54.75
2018-06-08T13:54:58.017Z,54.17
2018-06-08T13:55:58.016Z,54.82
2018-06-08T13:56:58.028Z,54.72
2018-06-08T13:57:58.026Z,55.69
2018-06-08T13:58:58.036Z,55.60
2018-06-08T13:59:58.036Z,56.86
2018-06-08T14:00:58.036Z,57.25
2018-06-08T14:01:58.040Z,58.12
2018-06-08T14:02:58.037Z,58.39
2018-06-08T14:03:58.044Z,60.68
2018-06-08T14:04:58.048Z,62.40
2018-06-08T14:05:58.043Z,63.53
2018-06-08T14:06:58.048Z,63.43
2018-06-08T14:07:58.056Z,63.53
2018-06-08T14:08:58.056Z,64.14
2018-06-08T14:09:58.053Z,63.85
2018-06-08T14:10:58.064Z,63.07
2018-06-08T14:11:58.061Z,61.52
2018-06-08T14:12:58.068Z,62.37
2018-06-08T14:13:58.064Z,62.56
2018-06-08T14:14:58.072Z,64.01
2018-06-08T14:15:58.065Z,63.11
2018-06-08T14:16:58.072Z,63.37
2018-06-08T14:17:58.066Z,65.20
2018-06-08T14:18:58.078Z,64.69
2018-06-08T14:19:58.077Z,65.66
2018-06-08T14:20:58.135Z,64.59
2018-06-08T14:21:58.073Z,65.08
2018-06-08T14:22:58.080Z,65.47
2018-06-08T14:23:58.079Z,65.85
2018-06-08T14:24:58.079Z,67.27
2018-06-08T14:25:58.085Z,68.91
2018-06-08T14:26:58.088Z,71.04
2018-06-08T14:27:58.080Z,72.97
2018-06-08T14:28:58.078Z,74.90
2018-06-08T14:29:58.083Z,74.07
2018-06-08T14:30:58.091Z,74.27
2018-06-08T14:31:58.086Z,72.91
2018-06-08T14:32:58.099Z,75.71
2018-06-08T14:33:58.083Z,77.17
2018-06-08T14:34:58.092Z,74.85
2018-06-08T14:35:58.084Z,77.75
2018-06-08T14:36:58.091Z,80.61
2018-06-08T14:37:58.085Z,79.99
2018-06-08T14:38:58.088Z,78.54
2018-06-08T14:39:58.096Z,86.07
2018-06-08T14:40:58.089Z,87.52
2018-06-08T14:41:58.091Z,86.71
2018-06-08T14:42:58.087Z,88.25
2018-06-08T14:43:58.101Z,88.83
2018-06-08T14:44:58.087Z,89.61
2018-06-08T14:45:58.115Z,89.51
2018-06-08T14:46:58.096Z,90.95
2018-06-08T14:47:58.090Z,90.57
2018-06-08T14:48:58.088Z,89.89
2018-06-08T14:49:58.091Z,90.47
2018-06-08T14:50:58.093Z,92.31
2018-06-08T14:51:58.103Z,90.77
2018-06-08T14:52:58.099Z,89.51
2018-06-08T14:53:58.093Z,86.32
2018-06-08T14:54:58.101Z,86.22
2018-06-08T14:55:58.092Z,85.26
2018-06-08T14:56:58.093Z,86.71
2018-06-08T14:57:58.090Z,85.55
2018-06-08T14:58:58.125Z,86.52
2018-06-08T14:59:58.089Z,87.38
2018-06-08T15:00:58.097Z,88.54
2018-06-08T15:01:58.094Z,88.06
2018-06-08T15:02:58.098Z,87.05
2018-06-08T15:03:58.107Z,87.92
2018-06-08T15:04:58.099Z,88.11
2018-06-08T15:05:58.096Z,87.53
2018-06-08T15:06:58.099Z,88.59
2018-06-08T15:07:58.092Z,90.14
2018-06-08T15:08:58.094Z,90.43
2018-06-08T15:09:58.101Z,88.50
2018-06-08T15:10:58.098Z,90.05
2018-06-08T15:11:58.098Z,90.33
2018-06-08T15:12:58.096Z,88.89
2018-06-08T15:13:58.119Z,89.37
2018-06-08T15:14:58.104Z,90.53
2018-06-08T15:15:58.102Z,88.79
2018-06-08T15:16:58.092Z,90.43
2018-06-08T15:17:58.096Z,90.05
2018-06-08T15:18:58.142Z,87.92
2018-06-08T15:19:58.096Z,89.56
2018-06-08T15:20:58.095Z,90.43
2018-06-08T15:21:58.107Z,90.62
2018-06-08T15:22:58.102Z,90.23
2018-06-08T15:23:58.113Z,90.91
2018-06-08T15:24:58.098Z,90.53
2018-06-08T15:25:58.107Z,89.56
2018-06-08T15:26:58.101Z,89.47
2018-06-08T15:27:58.111Z,87.24
2018-06-08T15:28:58.130Z,87.30
2018-06-08T15:29:58.104Z,87.40
2018-06-08T15:30:58.102Z,87.97
2018-06-08T15:31:58.099Z,88.79
2018-06-08T15:32:58.101Z,89.23
2018-06-08T15:33:58.108Z,87.83
2018-06-08T15:34:58.121Z,88.31
2018-06-08T15:35:58.110Z,87.64
2018-06-08T15:36:58.098Z,88.99
2018-06-08T15:37:58.105Z,90.82
2018-06-08T15:38:58.109Z,90.92
2018-06-08T15:39:58.097Z,92.65
2018-06-08T15:40:58.099Z,91.88
2018-06-08T15:41:58.107Z,91.40
2018-06-08T15:42:58.113Z,91.11
2018-06-08T15:43:58.106Z,92.08
2018-06-08T15:44:58.100Z,91.98
2018-06-08T15:45:58.101Z,91.98
2018-06-08T15:46:58.102Z,91.02
2018-06-08T15:47:58.098Z,91.60
2018-06-08T15:48:58.103Z,91.98
2018-06-08T15:49:58.101Z,92.17
2018-06-08T15:50:58.103Z,90.87
2018-06-08T15:51:58.094Z,90.48
2018-06-08T15:52:58.109Z,90.34
2018-06-08T15:53:58.101Z,92.80
2018-06-08T15:54:58.095Z,93.85
2018-06-08T15:55:58.101Z,93.85
2018-06-08T15:56:58.094Z,89.86
2018-06-08T15:57:58.091Z,92.99
2018-06-08T15:58:58.094Z,93.13
2018-06-08T15:59:58.094Z,91.64
2018-06-08T16:00:58.151Z,91.83
2018-06-08T16:01:58.090Z,91.78
2018-06-08T16:02:58.095Z,90.77
2018-06-08T16:03:58.093Z,90.96
2018-06-08T16:04:58.085Z,90.82
2018-06-08T16:05:58.092Z,90.48
2018-06-08T16:06:58.093Z,91.30
2018-06-08T16:07:58.088Z,92.56
2018-06-08T16:08:58.084Z,93.04
2018-06-08T16:09:58.084Z,91.98
2018-06-08T16:10:58.093Z,92.90
2018-06-08T16:11:58.081Z,95.21
2018-06-08T16:12:58.082Z,95.11
2018-06-08T16:13:58.083Z,95.69
2018-06-08T16:14:58.083Z,93.86
2018-06-08T16:15:58.088Z,94.44
2018-06-08T16:16:58.117Z,94.92
2018-06-08T16:17:58.080Z,96.56
2018-06-08T16:18:58.077Z,97.62
2018-06-08T16:19:58.078Z,97.14
2018-06-08T16:20:58.077Z,95.69
2018-06-08T16:21:58.083Z,96.17
2018-06-08T16:22:58.078Z,95.50
2018-06-08T16:23:58.079Z,94.44
2018-06-08T16:24:58.078Z,95.21
2018-06-08T16:25:58.083Z,95.02
2018-06-08T16:26:58.081Z,94.54
2018-06-08T16:27:58.084Z,93.33
2018-06-08T16:28:58.070Z,93.71
2018-06-08T16:29:58.120Z,92.75
2018-06-08T16:30:58.079Z,92.75
2018-06-08T16:31:58.071Z,93.04
2018-06-08T16:32:58.076Z,93.71
2018-06-08T16:33:58.072Z,95.74
2018-06-08T16:34:58.076Z,95.74
2018-06-08T16:35:58.066Z,96.37
2018-06-08T16:36:58.070Z,95.06
2018-06-08T16:37:58.065Z,95.79
2018-06-08T16:38:58.069Z,97.09
2018-06-08T16:39:58.058Z,97.77
2018-06-08T16:40:58.056Z,97.67
2018-06-08T16:41:58.056Z,97.86
2018-06-08T16:42:58.061Z,98.87
2018-06-08T16:43:58.053Z,98.87
2018-06-08T16:44:58.065Z,98.87
2018-06-08T16:45:58.055Z,98.87
2018-06-08T16:46:58.055Z,99.74
2018-06-08T16:47:58.052Z,99.74
2018-06-08T16:48:58.063Z,97.91
2018-06-08T16:49:58.061Z,98.10
2018-06-08T16:50:58.053Z,97.91
2018-06-08T16:51:58.051Z,97.62
2018-06-08T16:52:58.055Z,98.10
2018-06-08T16:53:58.056Z,96.66
2018-06-08T16:54:58.049Z,97.14
2018-06-08T16:55:58.047Z,97.33
2018-06-08T16:56:58.051Z,97.81
2018-06-08T16:57:58.060Z,98.77
2018-06-08T16:58:58.051Z,98.68
2018-06-08T16:59:58.045Z,98.68
2018-06-08T17:00:58.046Z,98.97
2018-06-08T17:01:58.054Z,99.64
2018-06-08T17:02:58.049Z,98.20
2018-06-08T17:03:58.043Z,98.25
2018-06-08T17:04:58.040Z,98.10
2018-06-08T17:05:58.044Z,97.91
2018-06-08T17:06:58.044Z,97.42
2018-06-08T17:07:58.038Z,98.00
2018-06-08T17:08:58.038Z,98.68
2018-06-08T17:09:58.052Z,99.99
2018-06-08T17:10:58.049Z,99.99
2018-06-08T17:11:58.045Z,99.07
2018-06-08T17:12:58.048Z,99.16
2018-06-08T17:13:58.033Z,98.00
2018-06-08T17:14:58.039Z,99.45
2018-06-08T17:15:58.032Z,99.35
2018-06-08T17:16:58.033Z,97.81
2018-06-08T17:17:58.068Z,98.58
2018-06-08T17:18:58.033Z,98.20
2018-06-08T17:19:58.047Z,98.39
2018-06-08T17:20:58.033Z,99.16
2018-06-08T17:21:58.031Z,98.00
2018-06-08T17:22:58.026Z,99.16
2018-06-08T17:23:58.026Z,98.87
2018-06-08T17:24:58.026Z,99.93
2018-06-08T17:25:58.029Z,99.45
2018-06-08T17:26:58.031Z,99.93
2018-06-08T17:27:58.029Z,99.99
2018-06-08T17:28:58.021Z,99.99
2018-06-08T17:29:58.020Z,99.74
2018-06-08T17:30:58.020Z,99.99
2018-06-08T17:31:58.029Z,99.99
2018-06-08T17:32:58.016Z,99.99
2018-06-08T17:33:58.024Z,99.99
2018-06-08T17:34:58.023Z,99.98
2018-06-08T17:35:58.024Z,98.10
2018-06-08T17:36:58.017Z,99.11
2018-06-08T17:37:58.013Z,99.45
2018-06-08T17:38:58.013Z,99.99
2018-06-08T17:39:58.013Z,99.99
2018-06-08T17:40:58.012Z,99.99
2018-06-08T17:41:58.015Z,99.99
2018-06-08T17:42:58.008Z,99.99
2018-06-08T17:43:58.015Z,99.99
2018-06-08T17:44:58.011Z,99.99
2018-06-08T17:45:58.003Z,99.99
2018-06-08T17:46:58.003Z,99.99
2018-06-08T17:47:58.001Z,99.99
2018-06-08T17:48:58.000Z,99.99
2018-06-08T17:49:58.016Z,99.99
2018-06-08T17:50:58.006Z,99.99
2018-06-08T17:51:58.000Z,99.99
2018-06-08T17:52:58.005Z,99.99
2018-06-08T17:53:58.002Z,99.99
2018-06-08T17:54:57.995Z,99.99
2018-06-08T17:55:58.002Z,99.99
2018-06-08T17:56:58.003Z,99.99
2018-06-08T17:57:57.991Z,99.99
2018-06-08T17:58:57.990Z,99.99
2018-06-08T17:59:57.996Z,99.99
2018-06-08T18:00:58.263Z,99.99
2018-06-08T18:01:57.997Z,99.99
2018-06-08T18:02:57.991Z,99.99
2018-06-08T18:03:57.985Z,99.99
2018-06-08T18:04:57.989Z,99.99
2018-06-08T18:05:57.985Z,99.99
2018-06-08T18:06:57.991Z,99.99
2018-06-08T18:07:57.987Z,99.99
2018-06-08T18:08:57.980Z,99.99
2018-06-08T18:09:57.988Z,99.99
2018-06-08T18:10:57.978Z,99.99
2018-06-08T18:11:58.055Z,99.99
2018-06-08T18:12:57.976Z,99.99
2018-06-08T18:13:57.973Z,99.99
2018-06-08T18:14:57.976Z,99.99
2018-06-08T18:15:57.981Z,99.99
2018-06-08T18:16:57.974Z,99.99
2018-06-08T18:17:58.012Z,99.99
2018-06-08T18:18:57.977Z,99.99
2018-06-08T18:19:57.966Z,99.99
2018-06-08T18:20:57.970Z,99.99
2018-06-08T18:21:57.970Z,99.99
2018-06-08T18:22:57.971Z,99.99
2018-06-08T18:23:57.966Z,99.99
2018-06-08T18:24:57.959Z,99.99
2018-06-08T18:25:57.960Z,99.99
2018-06-08T18:26:57.961Z,99.99
2018-06-08T18:27:57.959Z,99.99
2018-06-08T18:28:57.961Z,99.99
2018-06-08T18:29:57.964Z,99.99
2018-06-08T18:30:57.964Z,99.88
2018-06-08T18:31:57.966Z,99.99
2018-06-08T18:32:57.959Z,99.99
2018-06-08T18:33:57.975Z,99.99
2018-06-08T18:34:57.950Z,99.99
2018-06-08T18:35:57.951Z,99.99
2018-06-08T18:36:57.950Z,99.99
2018-06-08T18:37:57.945Z,99.99
2018-06-08T18:38:57.944Z,99.99
2018-06-08T18:39:57.999Z,99.99
2018-06-08T18:40:57.940Z,99.99
2018-06-08T18:41:57.948Z,99.99
2018-06-08T18:42:57.940Z,99.99
2018-06-08T18:43:57.964Z,99.99
2018-06-08T18:44:57.936Z,99.99
2018-06-08T18:45:57.937Z,99.99
2018-06-08T18:46:57.933Z,99.99
2018-06-08T18:47:57.936Z,99.99
2018-06-08T18:48:57.936Z,99.99
2018-06-08T18:49:57.928Z,99.99
2018-06-08T18:50:57.932Z,99.99
2018-06-08T18:51:57.925Z,99.99
2018-06-08T18:52:57.933Z,99.99
2018-06-08T18:53:57.941Z,99.99
2018-06-08T18:54:57.945Z,99.99
2018-06-08T18:55:57.921Z,99.99
2018-06-08T18:56:57.915Z,99.99
2018-06-08T18:57:57.923Z,99.99
2018-06-08T18:58:57.915Z,99.99
2018-06-08T18:59:57.916Z,99.99
2018-06-08T19:00:57.912Z,99.99
2018-06-08T19:01:57.915Z,99.99
2018-06-08T19:02:57.911Z,99.99
2018-06-08T19:03:57.909Z,99.99
2018-06-08T19:04:57.905Z,99.99
2018-06-08T19:05:57.904Z,99.99
2018-06-08T19:06:57.903Z,99.99
2018-06-08T19:07:57.900Z,99.99
2018-06-08T19:08:57.902Z,99.99
2018-06-08T19:09:57.905Z,99.99
2018-06-08T19:10:57.907Z,99.99
2018-06-08T19:11:58.178Z,99.99
2018-06-08T19:12:57.896Z,99.99
2018-06-08T19:13:57.906Z,99.99
2018-06-08T19:14:57.893Z,99.99
2018-06-08T19:15:57.889Z,99.99
2018-06-08T19:16:57.904Z,99.99
2018-06-08T19:17:57.888Z,99.99
2018-06-08T19:18:57.888Z,99.99
2018-06-08T19:19:57.891Z,99.99
2018-06-08T19:20:57.882Z,99.99
2018-06-08T19:21:57.887Z,99.99
2018-06-08T19:22:57.884Z,99.99
2018-06-08T19:23:57.881Z,99.99
2018-06-08T19:24:57.884Z,99.99
2018-06-08T19:25:57.886Z,99.99
2018-06-08T19:26:57.877Z,99.99
2018-06-08T19:27:57.881Z,99.99
2018-06-08T19:28:57.873Z,99.99
2018-06-08T19:29:57.873Z,99.99
2018-06-08T19:30:57.877Z,99.99
2018-06-08T19:31:57.868Z,99.99
2018-06-08T19:32:57.869Z,99.99
2018-06-08T19:33:57.868Z,99.99
2018-06-08T19:34:57.874Z,99.99
2018-06-08T19:35:57.870Z,99.99
2018-06-08T19:36:57.865Z,99.99
2018-06-08T19:37:57.860Z,99.99
2018-06-08T19:38:57.861Z,99.99
2018-06-08T19:39:57.866Z,99.99
2018-06-08T19:40:57.866Z,99.99
2018-06-08T19:41:57.855Z,99.99
2018-06-08T19:42:57.909Z,99.99
2018-06-08T19:43:57.860Z,99.99
2018-06-08T19:44:57.852Z,99.99
2018-06-08T19:45:57.852Z,99.99
2018-06-08T19:46:57.851Z,99.99
2018-06-08T19:47:57.846Z,99.99
2018-06-08T19:48:57.851Z,99.99
2018-06-08T19:49:57.845Z,99.99
2018-06-08T19:50:57.847Z,99.99
2018-06-08T19:51:57.853Z,99.99
2018-06-08T19:52:57.842Z,99.99
2018-06-08T19:53:57.840Z,99.99
2018-06-08T19:54:57.847Z,99.99
2018-06-08T19:55:57.843Z,99.99
2018-06-08T19:56:57.839Z,99.99
2018-06-08T19:57:57.845Z,99.99
2018-06-08T19:58:57.846Z,99.99
2018-06-08T19:59:57.832Z,99.99
2018-06-08T20:00:57.836Z,99.99
2018-06-08T20:01:57.844Z,99.99
2018-06-08T20:02:57.829Z,99.99
2018-06-08T20:03:57.836Z,99.99
2018-06-08T20:04:57.835Z,99.99
2018-06-08T20:05:57.831Z,99.99
2018-06-08T20:06:57.847Z,99.99
2018-06-08T20:07:57.826Z,99.99
2018-06-08T20:08:57.822Z,99.99
2018-06-08T20:09:57.827Z,99.99
2018-06-08T20:10:57.829Z,99.99
2018-06-08T20:11:57.824Z,99.99
2018-06-08T20:12:57.819Z,99.99
2018-06-08T20:13:57.822Z,99.99
2018-06-08T20:14:57.815Z,99.99
2018-06-08T20:15:57.837Z,99.99
2018-06-08T20:16:57.841Z,99.99
2018-06-08T20:17:57.814Z,99.99
2018-06-08T20:18:57.854Z,99.99
2018-06-08T20:19:57.816Z,99.99
2018-06-08T20:20:57.817Z,99.99
2018-06-08T20:21:57.803Z,99.99
2018-06-08T20:22:57.811Z,99.99
2018-06-08T20:23:57.800Z,99.99
2018-06-08T20:24:57.801Z,99.99
2018-06-08T20:25:57.800Z,99.99
2018-06-08T20:26:57.801Z,99.99
2018-06-08T20:27:57.794Z,99.99
2018-06-08T20:28:57.793Z,99.99
2018-06-08T20:29:57.796Z,99.99
2018-06-08T20:30:57.795Z,99.99
2018-06-08T20:31:57.792Z,99.99
2018-06-08T20:32:57.785Z,99.99
2018-06-08T20:33:57.789Z,99.99
2018-06-08T20:34:57.786Z,99.99
2018-06-08T20:35:57.781Z,99.99
2018-06-08T20:36:57.786Z,99.99
2018-06-08T20:37:57.800Z,99.99
2018-06-08T20:38:57.797Z,99.99
2018-06-08T20:39:57.783Z,99.99
2018-06-08T20:40:57.777Z,99.99
2018-06-08T20:41:57.784Z,99.99
2018-06-08T20:42:57.782Z,99.99
2018-06-08T20:43:57.772Z,99.99
2018-06-08T20:44:57.773Z,99.99
2018-06-08T20:45:57.811Z,99.99
2018-06-08T20:46:57.770Z,99.99
2018-06-08T20:47:57.769Z,99.99
2018-06-08T20:48:57.778Z,99.99
2018-06-08T20:49:57.764Z,99.99
2018-06-08T20:50:57.765Z,99.99
2018-06-08T20:51:57.765Z,99.99
2018-06-08T20:52:57.768Z,99.99
2018-06-08T20:53:57.758Z,99.99
2018-06-08T20:54:57.759Z,99.99
2018-06-08T20:55:57.766Z,99.99
2018-06-08T20:56:57.772Z,99.99
2018-06-08T20:57:57.769Z,99.99
2018-06-08T20:58:57.774Z,99.99
2018-06-08T20:59:57.764Z,99.99
2018-06-08T21:00:57.751Z,99.99
2018-06-08T21:01:57.771Z,99.99
2018-06-08T21:02:57.748Z,99.99
2018-06-08T21:03:57.749Z,99.99
2018-06-08T21:04:57.746Z,99.99
2018-06-08T21:05:57.753Z,99.99
2018-06-08T21:06:57.740Z,99.99
2018-06-08T21:07:57.747Z,99.99
2018-06-08T21:08:57.735Z,99.99
2018-06-08T21:09:57.740Z,99.99
2018-06-08T21:10:57.736Z,99.99
2018-06-08T21:11:57.736Z,99.99
2018-06-08T21:12:57.732Z,99.99
2018-06-08T21:13:57.734Z,99.99
2018-06-08T21:14:57.730Z,99.99
2018-06-08T21:15:57.724Z,99.99
2018-06-08T21:16:57.724Z,99.99
2018-06-08T21:17:57.726Z,99.99
2018-06-08T21:18:57.728Z,99.99
2018-06-08T21:19:57.732Z,99.99
2018-06-08T21:20:57.720Z,99.99
2018-06-08T21:21:57.723Z,99.99
2018-06-08T21:22:57.732Z,99.99
2018-06-08T21:23:57.722Z,99.99
2018-06-08T21:24:57.714Z,99.99
2018-06-08T21:25:57.721Z,99.99
2018-06-08T21:26:57.739Z,99.99
2018-06-08T21:27:57.722Z,99.99
2018-06-08T21:28:57.711Z,99.99
2018-06-08T21:29:57.714Z,99.99
2018-06-08T21:30:57.705Z,99.99
2018-06-08T21:31:57.718Z,99.99
2018-06-08T21:32:57.701Z,99.99
2018-06-08T21:33:57.746Z,99.99
2018-06-08T21:34:57.699Z,99.99
2018-06-08T21:35:57.706Z,99.99
2018-06-08T21:36:57.710Z,99.99
2018-06-08T21:37:57.699Z,99.99
2018-06-08T21:38:57.699Z,99.99
2018-06-08T21:39:57.693Z,99.99
2018-06-08T21:40:57.689Z,99.99
2018-06-08T21:41:57.688Z,99.99
2018-06-08T21:42:57.690Z,99.99
2018-06-08T21:43:57.689Z,99.99
2018-06-08T21:44:57.692Z,99.99
2018-06-08T21:45:57.683Z,99.99
2018-06-08T21:46:57.683Z,99.99
2018-06-08T21:47:57.679Z,99.99
2018-06-08T21:48:57.680Z,99.99
2018-06-08T21:49:57.686Z,99.99
2018-06-08T21:50:57.683Z,99.99
2018-06-08T21:51:57.678Z,99.99
2018-06-08T21:52:57.678Z,99.99
2018-06-08T21:53:57.668Z,99.99
2018-06-08T21:54:57.672Z,99.99
2018-06-08T21:55:57.667Z,99.99
2018-06-08T21:56:57.669Z,99.99
2018-06-08T21:57:57.664Z,99.99
2018-06-08T21:58:57.671Z,99.99
2018-06-08T21:59:57.683Z,99.99
2018-06-08T22:00:57.667Z,99.99
2018-06-08T22:01:57.673Z,99.99
2018-06-08T22:02:57.658Z,99.99
2018-06-08T22:03:57.655Z,99.99
2018-06-08T22:04:57.655Z,99.99
2018-06-08T22:05:57.649Z,99.99
2018-06-08T22:06:57.680Z,99.99
2018-06-08T22:07:57.645Z,99.99
2018-06-08T22:08:57.644Z,99.99
2018-06-08T22:09:57.644Z,99.99
2018-06-08T22:10:57.647Z,99.99
2018-06-08T22:11:57.640Z,99.99
2018-06-08T22:12:57.641Z,99.99
2018-06-08T22:13:57.641Z,99.99
2018-06-08T22:14:57.634Z,99.99
2018-06-08T22:15:57.637Z,99.99
2018-06-08T22:16:57.645Z,99.99
2018-06-08T22:17:57.631Z,99.99
2018-06-08T22:18:57.633Z,99.99
2018-06-08T22:19:57.627Z,99.99
2018-06-08T22:20:57.638Z,99.99
2018-06-08T22:21:57.633Z,99.99
2018-06-08T22:22:57.623Z,99.99
2018-06-08T22:23:57.621Z,99.99
2018-06-08T22:24:57.618Z,99.99
2018-06-08T22:25:57.618Z,99.99
2018-06-08T22:26:57.623Z,99.99
2018-06-08T22:27:57.627Z,99.99
2018-06-08T22:28:57.619Z,99.99
2018-06-08T22:29:57.635Z,99.99
2018-06-08T22:30:57.607Z,99.99
2018-06-08T22:31:57.604Z,99.99
2018-06-08T22:32:57.604Z,99.99
2018-06-08T22:33:57.608Z,99.99
2018-06-08T22:34:57.606Z,99.99
2018-06-08T22:35:57.596Z,99.99
2018-06-08T22:36:57.596Z,99.99
2018-06-08T22:37:57.596Z,99.99
2018-06-08T22:38:57.603Z,99.99
2018-06-08T22:39:57.601Z,99.99
2018-06-08T22:40:57.632Z,99.99
2018-06-08T22:41:57.649Z,99.99
2018-06-08T22:42:57.587Z,99.99
2018-06-08T22:43:57.583Z,99.99
2018-06-08T22:44:57.580Z,99.99
2018-06-08T22:45:57.590Z,99.99
2018-06-08T22:46:57.581Z,99.99
2018-06-08T22:47:57.577Z,99.99
2018-06-08T22:48:57.584Z,99.99
2018-06-08T22:49:57.589Z,99.99
2018-06-08T22:50:57.581Z,99.99
2018-06-08T22:51:57.569Z,99.99
2018-06-08T22:52:57.570Z,99.99
2018-06-08T22:53:57.568Z,99.99
2018-06-08T22:54:57.566Z,99.99
2018-06-08T22:55:57.564Z,99.99
2018-06-08T22:56:57.574Z,99.99
2018-06-08T22:57:57.559Z,99.99
2018-06-08T22:58:57.563Z,99.99
2018-06-08T22:59:57.565Z,99.99
2018-06-08T23:00:57.561Z,99.99
2018-06-08T23:01:57.580Z,99.99
2018-06-08T23:02:57.579Z,99.99
2018-06-08T23:03:57.583Z,99.99
2018-06-08T23:04:57.549Z,99.99
2018-06-08T23:05:57.549Z,99.99
2018-06-08T23:06:57.557Z,99.99
2018-06-08T23:07:57.548Z,99.99
2018-06-08T23:08:57.556Z,99.99
2018-06-08T23:09:57.541Z,99.99
2018-06-08T23:10:57.542Z,99.99
2018-06-08T23:11:57.537Z,99.99
2018-06-08T23:12:57.551Z,99.99
2018-06-08T23:13:57.532Z,99.99
2018-06-08T23:14:57.538Z,99.99
2018-06-08T23:15:57.545Z,99.99
2018-06-08T23:16:57.575Z,99.99
2018-06-08T23:17:57.527Z,99.99
2018-06-08T23:18:57.528Z,99.99
2018-06-08T23:19:57.525Z,99.99
2018-06-08T23:20:57.529Z,99.99
2018-06-08T23:21:57.522Z,99.99
2018-06-08T23:22:57.520Z,99.99
2018-06-08T23:23:57.518Z,99.99
2018-06-08T23:24:57.523Z,99.99
2018-06-08T23:25:57.522Z,99.99
2018-06-08T23:26:57.512Z,99.99
2018-06-08T23:27:57.521Z,99.99
2018-06-08T23:28:57.522Z,99.99
2018-06-08T23:29:57.546Z,99.99
2018-06-08T23:30:57.507Z,99.99
2018-06-08T23:31:57.506Z,99.99
2018-06-08T23:32:57.503Z,99.99
2018-06-08T23:33:57.507Z,99.99
2018-06-08T23:34:57.518Z,99.99
2018-06-08T23:35:57.508Z,99.99
2018-06-08T23:36:57.506Z,99.99
2018-06-08T23:37:57.497Z,99.99
2018-06-08T23:38:57.500Z,99.99
2018-06-08T23:39:57.496Z,99.99
2018-06-08T23:40:57.488Z,99.99
2018-06-08T23:41:57.489Z,99.99
2018-06-08T23:42:57.519Z,99.99
2018-06-08T23:43:57.488Z,99.99
2018-06-08T23:44:57.480Z,99.99
2018-06-08T23:45:57.480Z,99.99
2018-06-08T23:46:57.478Z,99.99
2018-06-08T23:47:57.481Z,99.99
2018-06-08T23:48:57.487Z,99.99
2018-06-08T23:49:57.476Z,99.99
2018-06-08T23:50:57.473Z,99.99
2018-06-08T23:51:57.469Z,99.99
2018-06-08T23:52:57.468Z,99.99
2018-06-08T23:53:57.466Z,99.99
2018-06-08T23:54:57.464Z,99.99
2018-06-08T23:55:57.467Z,99.99
2018-06-08T23:56:57.471Z,99.99
2018-06-08T23:57:57.468Z,99.99
2018-06-08T23:58:57.456Z,99.99
2018-06-08T23:59:57.458Z,99.99
